Roy, Utah
Current Conditions -  °F | °C
As of 10:53 AM on Thursday 30 Oct 2014 (Local Time) from KOGD Reporting Station
Clear Clear  
Wind Chill: 55°   Ceiling: Unl
Heat Index: 55°   Visibility: 10mi
Dew Point: 30°   Wind: 5mph
Humidity: 38%   Direction: 310°NW
Pressure: 30.27"   Gusts: NA
Location:  41.17°N, 112.02°W
Report Text: KOGD 301653Z 31004KT 10SM CLR 13/M01 A3027 RMK AO2 SLP230 T01281011
Loading
Personal Weather Stations






























Interactive Weather Map
Tropical Storm Tracking
New forecast layout! Learn more

10-Day Weather Forecast

Advertisements
Track Severe Weather on mobile